createdAt,value
2017-06-16T00:00:40.522Z,995.06
2017-06-16T00:01:40.553Z,995.05
2017-06-16T00:02:40.584Z,995.05
2017-06-16T00:03:40.616Z,995.03
2017-06-16T00:04:40.644Z,995.03
2017-06-16T00:05:40.824Z,995.01
2017-06-16T00:06:40.700Z,994.99
2017-06-16T00:07:40.734Z,994.99
2017-06-16T00:08:40.761Z,994.98
2017-06-16T00:09:40.791Z,995.02
2017-06-16T00:10:40.820Z,995.05
2017-06-16T00:11:40.850Z,995.04
2017-06-16T00:12:40.881Z,995.06
2017-06-16T00:13:40.910Z,995.06
2017-06-16T00:14:40.939Z,995.08
2017-06-16T00:15:40.968Z,995.09
2017-06-16T00:16:40.996Z,995.07
2017-06-16T00:17:41.025Z,995.08
2017-06-16T00:18:41.054Z,995.12
2017-06-16T00:19:41.087Z,995.09
2017-06-16T00:20:41.116Z,995.13
2017-06-16T00:21:41.145Z,995.1
2017-06-16T00:22:41.174Z,995.09
2017-06-16T00:23:41.206Z,995.09
2017-06-16T00:24:41.235Z,995.12
2017-06-16T00:25:41.264Z,995.07
2017-06-16T00:26:41.293Z,995.11
2017-06-16T00:27:41.325Z,995.1
2017-06-16T00:28:41.355Z,995.12
2017-06-16T00:29:41.387Z,995.18
2017-06-16T00:30:41.410Z,995.22
2017-06-16T00:31:41.446Z,995.18
2017-06-16T00:32:41.469Z,995.21
2017-06-16T00:33:41.503Z,995.21
2017-06-16T00:34:41.533Z,995.17
2017-06-16T00:35:41.561Z,995.21
2017-06-16T00:36:41.591Z,995.23
2017-06-16T00:37:41.619Z,995.2
2017-06-16T00:38:41.651Z,995.22
2017-06-16T00:39:41.680Z,995.23
2017-06-16T00:40:41.710Z,995.24
2017-06-16T00:41:41.734Z,995.22
2017-06-16T00:42:41.766Z,995.25
2017-06-16T00:43:41.795Z,995.22
2017-06-16T00:44:41.823Z,995.26
2017-06-16T00:45:41.855Z,995.24
2017-06-16T00:46:41.885Z,995.23
2017-06-16T00:47:41.914Z,995.29
2017-06-16T00:48:41.942Z,995.31
2017-06-16T00:49:41.976Z,995.33
2017-06-16T00:50:42.001Z,995.34
2017-06-16T00:51:42.033Z,995.34
2017-06-16T00:52:42.062Z,995.39
2017-06-16T00:53:42.091Z,995.41
2017-06-16T00:54:42.120Z,995.41
2017-06-16T00:55:42.148Z,995.43
2017-06-16T00:56:42.180Z,995.47
2017-06-16T00:57:42.209Z,995.46
2017-06-16T00:58:42.238Z,995.48
2017-06-16T00:59:42.267Z,995.38
2017-06-16T01:00:42.292Z,995.45
2017-06-16T01:01:42.325Z,995.45
2017-06-16T01:02:42.360Z,995.39
2017-06-16T01:03:42.385Z,995.39
2017-06-16T01:04:42.411Z,995.4
2017-06-16T01:05:42.444Z,995.45
2017-06-16T01:06:42.473Z,995.42
2017-06-16T01:07:42.502Z,995.43
2017-06-16T01:08:42.534Z,995.41
2017-06-16T01:09:42.564Z,995.45
2017-06-16T01:10:42.592Z,995.43
2017-06-16T01:11:42.621Z,995.53
2017-06-16T01:12:42.649Z,995.58
2017-06-16T01:13:42.678Z,995.55
2017-06-16T01:14:42.708Z,995.54
2017-06-16T01:15:42.740Z,995.51
2017-06-16T01:16:42.769Z,995.52
2017-06-16T01:17:42.798Z,995.56
2017-06-16T01:18:42.827Z,995.65
2017-06-16T01:19:42.855Z,995.67
2017-06-16T01:20:42.884Z,995.69
2017-06-16T01:21:42.918Z,995.69
2017-06-16T01:22:42.946Z,995.71
2017-06-16T01:23:42.975Z,995.7
2017-06-16T01:24:43.004Z,995.68
2017-06-16T01:25:43.033Z,995.7
2017-06-16T01:26:43.062Z,995.75
2017-06-16T01:27:43.090Z,995.78
2017-06-16T01:28:43.125Z,995.74
2017-06-16T01:29:43.156Z,995.71
2017-06-16T01:30:43.181Z,995.68
2017-06-16T01:31:43.210Z,995.69
2017-06-16T01:32:43.238Z,995.68
2017-06-16T01:33:43.266Z,995.71
2017-06-16T01:34:43.295Z,995.74
2017-06-16T01:35:43.328Z,995.8
2017-06-16T01:36:43.356Z,995.81
2017-06-16T01:37:43.386Z,995.82
2017-06-16T01:38:43.414Z,995.84
2017-06-16T01:39:43.443Z,995.85
2017-06-16T01:40:43.469Z,995.79
2017-06-16T01:41:43.497Z,995.82
2017-06-16T01:42:43.530Z,995.86
2017-06-16T01:43:43.562Z,995.87
2017-06-16T01:44:43.591Z,995.88
2017-06-16T01:45:43.620Z,995.88
2017-06-16T01:46:43.649Z,995.88
2017-06-16T01:47:43.677Z,995.89
2017-06-16T01:48:43.707Z,995.98
2017-06-16T01:49:43.734Z,995.96
2017-06-16T01:50:43.764Z,995.98
2017-06-16T01:51:43.796Z,996.04
2017-06-16T01:52:43.828Z,996.05
2017-06-16T01:53:43.855Z,996.08
2017-06-16T01:54:43.883Z,996.11
2017-06-16T01:55:43.907Z,996.06
2017-06-16T01:56:43.945Z,996.07
2017-06-16T01:57:43.970Z,996.09
2017-06-16T01:58:44.003Z,996.05
2017-06-16T01:59:44.032Z,996.08
2017-06-16T02:00:44.060Z,996.08
2017-06-16T02:01:44.089Z,996.09
2017-06-16T02:02:44.118Z,996.13
2017-06-16T02:03:44.149Z,996.12
2017-06-16T02:04:44.176Z,996.15
2017-06-16T02:05:44.208Z,996.17
2017-06-16T02:06:44.238Z,996.18
2017-06-16T02:07:44.267Z,996.21
2017-06-16T02:08:44.295Z,996.23
2017-06-16T02:09:44.325Z,996.24
2017-06-16T02:10:44.351Z,996.32
2017-06-16T02:11:44.381Z,996.32
2017-06-16T02:12:44.406Z,996.34
2017-06-16T02:13:44.439Z,996.31
2017-06-16T02:14:44.468Z,996.3
2017-06-16T02:15:44.500Z,996.35
2017-06-16T02:16:44.530Z,996.36
2017-06-16T02:17:44.555Z,996.34
2017-06-16T02:18:44.583Z,996.32
2017-06-16T02:19:44.615Z,996.35
2017-06-16T02:20:44.643Z,996.37
2017-06-16T02:21:44.673Z,996.38
2017-06-16T02:22:44.699Z,996.43
2017-06-16T02:23:44.727Z,996.42
2017-06-16T02:24:44.763Z,996.45
2017-06-16T02:25:44.788Z,996.47
2017-06-16T02:26:44.821Z,996.47
2017-06-16T02:27:44.850Z,996.51
2017-06-16T02:28:44.879Z,996.52
2017-06-16T02:29:44.907Z,996.49
2017-06-16T02:30:44.935Z,996.51
2017-06-16T02:31:44.964Z,996.53
2017-06-16T02:32:44.991Z,996.49
2017-06-16T02:33:45.022Z,996.5
2017-06-16T02:34:45.057Z,996.46
2017-06-16T02:35:45.081Z,996.5
2017-06-16T02:36:45.110Z,996.49
2017-06-16T02:37:45.141Z,996.5
2017-06-16T02:38:45.170Z,996.46
2017-06-16T02:39:45.199Z,996.5
2017-06-16T02:40:45.228Z,996.45
2017-06-16T02:41:45.256Z,996.48
2017-06-16T02:42:45.286Z,996.45
2017-06-16T02:43:45.311Z,996.42
2017-06-16T02:44:45.345Z,996.4
2017-06-16T02:45:45.374Z,996.4
2017-06-16T02:46:45.397Z,996.43
2017-06-16T02:47:45.431Z,996.37
2017-06-16T02:48:45.465Z,996.38
2017-06-16T02:49:45.493Z,996.35
2017-06-16T02:50:45.522Z,996.34
2017-06-16T02:51:45.550Z,996.39
2017-06-16T02:52:45.578Z,996.46
2017-06-16T02:53:45.607Z,996.46
2017-06-16T02:54:45.636Z,996.5
2017-06-16T02:55:45.665Z,996.53
2017-06-16T02:56:45.694Z,996.54
2017-06-16T02:57:45.723Z,996.55
2017-06-16T02:58:45.751Z,996.57
2017-06-16T02:59:45.780Z,996.63
2017-06-16T03:00:45.805Z,996.65
2017-06-16T03:01:45.842Z,996.69
2017-06-16T03:02:45.866Z,996.69
2017-06-16T03:03:45.899Z,996.68
2017-06-16T03:04:45.927Z,996.66
2017-06-16T03:05:45.956Z,996.68
2017-06-16T03:06:45.985Z,996.67
2017-06-16T03:07:46.014Z,996.67
2017-06-16T03:08:46.043Z,996.67
2017-06-16T03:09:46.072Z,996.67
2017-06-16T03:10:46.100Z,996.62
2017-06-16T03:11:46.128Z,996.63
2017-06-16T03:12:46.158Z,996.63
2017-06-16T03:13:46.192Z,996.63
2017-06-16T03:14:46.216Z,996.63
2017-06-16T03:15:46.245Z,996.66
2017-06-16T03:16:46.286Z,996.71
2017-06-16T03:17:46.303Z,996.68
2017-06-16T03:18:46.337Z,996.7
2017-06-16T03:19:46.364Z,996.76
2017-06-16T03:20:46.392Z,996.76
2017-06-16T03:21:46.421Z,996.74
2017-06-16T03:22:46.451Z,996.71
2017-06-16T03:23:46.479Z,996.68
2017-06-16T03:24:46.508Z,996.71
2017-06-16T03:25:46.537Z,996.67
2017-06-16T03:26:46.815Z,996.73
2017-06-16T03:27:46.594Z,996.72
2017-06-16T03:28:46.623Z,996.69
2017-06-16T03:29:46.652Z,996.65
2017-06-16T03:30:46.681Z,996.62
2017-06-16T03:31:46.957Z,996.57
2017-06-16T03:32:46.738Z,996.59
2017-06-16T03:33:46.767Z,996.54
2017-06-16T03:34:46.801Z,996.6
2017-06-16T03:35:46.830Z,996.59
2017-06-16T03:36:46.858Z,996.61
2017-06-16T03:37:46.887Z,996.62
2017-06-16T03:38:46.915Z,996.62
2017-06-16T03:39:46.945Z,996.71
2017-06-16T03:40:46.973Z,996.69
2017-06-16T03:41:47.001Z,996.75
2017-06-16T03:42:47.030Z,996.78
2017-06-16T03:43:47.059Z,996.78
2017-06-16T03:44:47.089Z,996.79
2017-06-16T03:45:47.118Z,996.79
2017-06-16T03:46:47.146Z,996.83
2017-06-16T03:47:47.175Z,996.8
2017-06-16T03:48:47.207Z,996.81
2017-06-16T03:49:47.232Z,996.82
2017-06-16T03:50:47.265Z,996.8
2017-06-16T03:51:47.294Z,996.81
2017-06-16T03:52:47.323Z,996.85
2017-06-16T03:53:47.386Z,996.87
2017-06-16T03:54:47.380Z,996.91
2017-06-16T03:55:47.415Z,996.91
2017-06-16T03:56:47.437Z,996.94
2017-06-16T03:57:47.466Z,996.96
2017-06-16T03:58:47.495Z,996.91
2017-06-16T03:59:47.526Z,996.91
2017-06-16T04:00:47.551Z,996.95
2017-06-16T04:01:47.577Z,997
2017-06-16T04:02:47.610Z,996.99
2017-06-16T04:03:47.639Z,997.03
2017-06-16T04:04:47.667Z,997.01
2017-06-16T04:05:47.698Z,997.07
2017-06-16T04:06:47.721Z,997.09
2017-06-16T04:07:47.754Z,997.09
2017-06-16T04:08:47.783Z,997.12
2017-06-16T04:09:47.813Z,997.16
2017-06-16T04:10:47.845Z,997.16
2017-06-16T04:11:47.870Z,997.17
2017-06-16T04:12:47.898Z,997.17
2017-06-16T04:13:47.928Z,997.14
2017-06-16T04:14:47.960Z,997.14
2017-06-16T04:15:47.985Z,997.1
2017-06-16T04:16:48.014Z,997.09
2017-06-16T04:17:48.046Z,997.08
2017-06-16T04:18:48.072Z,997.1
2017-06-16T04:19:48.105Z,997.09
2017-06-16T04:20:48.129Z,997.13
2017-06-16T04:21:48.156Z,997.19
2017-06-16T04:22:48.192Z,997.2
2017-06-16T04:23:48.220Z,997.17
2017-06-16T04:24:48.249Z,997.18
2017-06-16T04:25:48.277Z,997.15
2017-06-16T04:26:48.305Z,997.17
2017-06-16T04:27:48.335Z,997.22
2017-06-16T04:28:48.364Z,997.2
2017-06-16T04:29:48.393Z,997.19
2017-06-16T04:30:48.422Z,997.25
2017-06-16T04:31:48.450Z,997.23
2017-06-16T04:32:48.477Z,997.22
2017-06-16T04:33:48.505Z,997.23
2017-06-16T04:34:48.537Z,997.23
2017-06-16T04:35:48.564Z,997.31
2017-06-16T04:36:48.595Z,997.32
2017-06-16T04:37:48.623Z,997.34
2017-06-16T04:38:48.648Z,997.38
2017-06-16T04:39:48.677Z,997.41
2017-06-16T04:40:48.709Z,997.41
2017-06-16T04:41:48.734Z,997.42
2017-06-16T04:42:49.019Z,997.45
2017-06-16T04:43:48.795Z,997.47
2017-06-16T04:44:48.825Z,997.48
2017-06-16T04:45:48.853Z,997.47
2017-06-16T04:46:48.882Z,997.47
2017-06-16T04:47:48.910Z,997.54
2017-06-16T04:48:48.941Z,997.49
2017-06-16T04:49:48.969Z,997.51
2017-06-16T04:50:48.998Z,997.51
2017-06-16T04:51:49.026Z,997.48
2017-06-16T04:52:49.054Z,997.49
2017-06-16T04:53:49.084Z,997.55
2017-06-16T04:54:49.116Z,997.56
2017-06-16T04:55:49.141Z,997.55
2017-06-16T04:56:49.175Z,997.6
2017-06-16T04:57:49.202Z,997.58
2017-06-16T04:58:49.231Z,997.55
2017-06-16T04:59:49.261Z,997.65
2017-06-16T05:00:49.285Z,997.68
2017-06-16T05:01:49.317Z,997.7
2017-06-16T05:02:49.343Z,997.68
2017-06-16T05:03:49.377Z,997.71
2017-06-16T05:04:49.401Z,997.7
2017-06-16T05:05:49.433Z,997.69
2017-06-16T05:06:49.459Z,997.71
2017-06-16T05:07:49.487Z,997.71
2017-06-16T05:08:49.521Z,997.74
2017-06-16T05:09:49.547Z,997.68
2017-06-16T05:10:49.578Z,997.73
2017-06-16T05:11:49.608Z,997.7
2017-06-16T05:12:49.631Z,997.71
2017-06-16T05:13:49.664Z,997.71
2017-06-16T05:14:49.692Z,997.68
2017-06-16T05:15:49.721Z,997.67
2017-06-16T05:16:49.751Z,997.68
2017-06-16T05:17:49.779Z,997.69
2017-06-16T05:18:49.805Z,997.71
2017-06-16T05:19:49.837Z,997.73
2017-06-16T05:20:49.866Z,997.71
2017-06-16T05:21:49.894Z,997.7
2017-06-16T05:22:49.923Z,997.77
2017-06-16T05:23:49.948Z,997.77
2017-06-16T05:24:49.980Z,997.84
2017-06-16T05:25:50.008Z,997.87
2017-06-16T05:26:50.054Z,997.89
2017-06-16T05:27:50.083Z,997.9
2017-06-16T05:28:50.095Z,997.94
2017-06-16T05:29:50.131Z,998.01
2017-06-16T05:30:50.154Z,997.99
2017-06-16T05:31:50.196Z,998.03
2017-06-16T05:32:50.231Z,998.05
2017-06-16T05:33:50.241Z,998.03
2017-06-16T05:34:50.269Z,997.98
2017-06-16T05:35:50.298Z,998.01
2017-06-16T05:36:50.330Z,997.98
2017-06-16T05:37:50.356Z,998.01
2017-06-16T05:38:50.387Z,998.02
2017-06-16T05:39:50.412Z,998.01
2017-06-16T05:40:50.442Z,998.05
2017-06-16T05:41:50.476Z,998.06
2017-06-16T05:42:50.497Z,998.11
2017-06-16T05:43:50.527Z,998.07
2017-06-16T05:44:50.556Z,998.05
2017-06-16T05:45:50.588Z,998.07
2017-06-16T05:46:50.614Z,998.1
2017-06-16T05:47:50.643Z,998.06
2017-06-16T05:48:50.676Z,998.08
2017-06-16T05:49:50.705Z,998.04
2017-06-16T05:50:50.729Z,998.06
2017-06-16T05:51:50.762Z,998.07
2017-06-16T05:52:50.791Z,998.05
2017-06-16T05:53:50.815Z,998.12
2017-06-16T05:54:50.849Z,998.11
2017-06-16T05:55:50.879Z,998.14
2017-06-16T05:56:50.901Z,998.18
2017-06-16T05:57:50.927Z,998.14
2017-06-16T05:58:50.963Z,998.21
2017-06-16T05:59:50.994Z,998.22
2017-06-16T06:00:51.022Z,998.15
2017-06-16T06:01:51.045Z,998.14
2017-06-16T06:02:51.078Z,998.24
2017-06-16T06:03:51.107Z,998.19
2017-06-16T06:04:51.133Z,998.16
2017-06-16T06:05:51.161Z,998.17
2017-06-16T06:06:51.193Z,998.15
2017-06-16T06:07:51.223Z,998.18
2017-06-16T06:08:51.254Z,998.2
2017-06-16T06:09:51.280Z,998.21
2017-06-16T06:10:51.309Z,998.22
2017-06-16T06:11:51.342Z,998.25
2017-06-16T06:12:51.367Z,998.22
2017-06-16T06:13:51.396Z,998.24
2017-06-16T06:14:51.421Z,998.22
2017-06-16T06:15:51.454Z,998.22
2017-06-16T06:16:51.483Z,998.17
2017-06-16T06:17:51.512Z,998.21
2017-06-16T06:18:51.540Z,998.22
2017-06-16T06:19:51.569Z,998.24
2017-06-16T06:20:51.598Z,998.27
2017-06-16T06:21:51.627Z,998.28
2017-06-16T06:22:51.655Z,998.33
2017-06-16T06:23:51.684Z,998.33
2017-06-16T06:24:51.712Z,998.31
2017-06-16T06:25:51.743Z,998.29
2017-06-16T06:26:51.769Z,998.35
2017-06-16T06:27:51.799Z,998.34
2017-06-16T06:28:51.828Z,998.39
2017-06-16T06:29:51.857Z,998.36
2017-06-16T06:30:51.886Z,998.35
2017-06-16T06:31:51.914Z,998.39
2017-06-16T06:32:51.939Z,998.38
2017-06-16T06:33:51.971Z,998.39
2017-06-16T06:34:52.000Z,998.42
2017-06-16T06:35:52.029Z,998.45
2017-06-16T06:36:52.058Z,998.43
2017-06-16T06:37:52.087Z,998.43
2017-06-16T06:38:52.116Z,998.42
2017-06-16T06:39:52.144Z,998.45
2017-06-16T06:40:52.172Z,998.45
2017-06-16T06:41:52.202Z,998.51
2017-06-16T06:42:52.230Z,998.49
2017-06-16T06:43:52.284Z,998.49
2017-06-16T06:44:52.285Z,998.48
2017-06-16T06:45:52.317Z,998.49
2017-06-16T06:46:52.348Z,998.5
2017-06-16T06:47:52.375Z,998.55
2017-06-16T06:48:52.404Z,998.52
2017-06-16T06:49:52.433Z,998.52
2017-06-16T06:50:52.462Z,998.55
2017-06-16T06:51:52.486Z,998.54
2017-06-16T06:52:52.519Z,998.49
2017-06-16T06:53:52.548Z,998.48
2017-06-16T06:54:52.576Z,998.51
2017-06-16T06:55:52.650Z,998.54
2017-06-16T06:56:52.636Z,998.55
2017-06-16T06:57:52.660Z,998.51
2017-06-16T06:58:52.693Z,998.58
2017-06-16T06:59:52.720Z,998.56
2017-06-16T07:00:52.749Z,998.57
2017-06-16T07:01:52.778Z,998.6
2017-06-16T07:02:52.806Z,998.57
2017-06-16T07:03:52.835Z,998.55
2017-06-16T07:04:52.864Z,998.51
2017-06-16T07:05:52.893Z,998.54
2017-06-16T07:06:52.923Z,998.53
2017-06-16T07:07:52.948Z,998.57
2017-06-16T07:08:52.981Z,998.53
2017-06-16T07:09:53.009Z,998.51
2017-06-16T07:10:53.032Z,998.49
2017-06-16T07:11:53.066Z,998.45
2017-06-16T07:12:53.094Z,998.45
2017-06-16T07:13:53.369Z,998.46
2017-06-16T07:14:53.154Z,998.46
2017-06-16T07:15:53.176Z,998.5
2017-06-16T07:16:53.210Z,998.53
2017-06-16T07:17:53.239Z,998.55
2017-06-16T07:18:53.520Z,998.58
2017-06-16T07:19:53.296Z,998.58
2017-06-16T07:20:53.323Z,998.6
2017-06-16T07:21:53.355Z,998.62
2017-06-16T07:22:53.382Z,998.68
2017-06-16T07:23:53.434Z,998.69
2017-06-16T07:24:53.443Z,998.74
2017-06-16T07:25:53.469Z,998.68
2017-06-16T07:26:53.499Z,998.74
2017-06-16T07:27:53.526Z,998.69
2017-06-16T07:28:53.555Z,998.74
2017-06-16T07:29:53.581Z,998.7
2017-06-16T07:30:53.613Z,998.71
2017-06-16T07:31:53.642Z,998.71
2017-06-16T07:32:53.682Z,998.74
2017-06-16T07:33:53.951Z,998.76
2017-06-16T07:34:53.724Z,998.87
2017-06-16T07:35:53.762Z,998.81
2017-06-16T07:36:53.786Z,998.79
2017-06-16T07:37:53.815Z,998.7
2017-06-16T07:38:53.842Z,998.69
2017-06-16T07:39:53.871Z,998.7
2017-06-16T07:40:53.900Z,998.73
2017-06-16T07:41:53.931Z,998.74
2017-06-16T07:42:53.958Z,998.72
2017-06-16T07:43:54.239Z,998.68
2017-06-16T07:44:54.015Z,998.7
2017-06-16T07:45:54.045Z,998.73
2017-06-16T07:46:54.078Z,998.76
2017-06-16T07:47:54.101Z,998.77
2017-06-16T07:48:54.129Z,998.79
2017-06-16T07:49:54.160Z,998.72
2017-06-16T07:50:54.189Z,998.75
2017-06-16T07:51:54.218Z,998.73
2017-06-16T07:52:54.243Z,998.72
2017-06-16T07:53:54.270Z,998.75
2017-06-16T07:54:54.302Z,998.76
2017-06-16T07:55:54.333Z,998.77
2017-06-16T07:56:54.361Z,998.77
2017-06-16T07:57:54.396Z,998.82
2017-06-16T07:58:54.671Z,998.88
2017-06-16T07:59:54.450Z,998.89
2017-06-16T08:00:54.476Z,998.93
2017-06-16T08:01:54.505Z,998.89
2017-06-16T08:02:54.530Z,998.94
2017-06-16T08:03:54.815Z,998.9
2017-06-16T08:04:54.592Z,998.85
2017-06-16T08:05:54.621Z,998.92
2017-06-16T08:06:54.650Z,998.92
2017-06-16T08:07:54.678Z,998.91
2017-06-16T08:08:54.958Z,998.88
2017-06-16T08:09:54.737Z,998.89
2017-06-16T08:10:54.760Z,998.84
2017-06-16T08:11:54.794Z,998.89
2017-06-16T08:12:54.826Z,998.87
2017-06-16T08:13:54.852Z,998.8
2017-06-16T08:14:54.884Z,998.84
2017-06-16T08:15:54.912Z,998.82
2017-06-16T08:16:54.940Z,998.84
2017-06-16T08:17:54.971Z,998.86
2017-06-16T08:18:55.000Z,998.83
2017-06-16T08:19:55.029Z,998.79
2017-06-16T08:20:55.055Z,998.84
2017-06-16T08:21:55.083Z,998.82
2017-06-16T08:22:55.118Z,998.88
2017-06-16T08:23:55.394Z,998.88
2017-06-16T08:24:55.173Z,998.91
2017-06-16T08:25:55.202Z,998.89
2017-06-16T08:26:55.226Z,998.92
2017-06-16T08:27:55.259Z,998.9
2017-06-16T08:28:55.288Z,998.98
2017-06-16T08:29:55.318Z,998.99
2017-06-16T08:30:55.341Z,999.02
2017-06-16T08:31:55.369Z,998.97
2017-06-16T08:32:55.407Z,998.94
2017-06-16T08:33:55.430Z,998.95
2017-06-16T08:34:55.460Z,998.98
2017-06-16T08:35:55.488Z,998.93
2017-06-16T08:36:55.516Z,998.92
2017-06-16T08:37:55.549Z,998.94
2017-06-16T08:38:55.827Z,999.03
2017-06-16T08:39:55.607Z,999.03
2017-06-16T08:40:55.633Z,998.97
2017-06-16T08:41:55.665Z,998.9
2017-06-16T08:42:55.694Z,998.93
2017-06-16T08:43:55.971Z,998.89
2017-06-16T08:44:55.752Z,998.87
2017-06-16T08:45:55.780Z,998.84
2017-06-16T08:46:55.834Z,998.88
2017-06-16T08:47:55.839Z,998.91
2017-06-16T08:48:56.118Z,998.91
2017-06-16T08:49:55.896Z,998.89
2017-06-16T08:50:55.922Z,998.93
2017-06-16T08:51:55.953Z,998.9
2017-06-16T08:52:55.981Z,998.9
2017-06-16T08:53:56.263Z,998.87
2017-06-16T08:54:56.037Z,998.88
2017-06-16T08:55:56.073Z,998.86
2017-06-16T08:56:56.097Z,998.82
2017-06-16T08:57:56.127Z,998.87
2017-06-16T08:58:56.160Z,998.85
2017-06-16T08:59:56.190Z,998.89
2017-06-16T09:00:56.218Z,998.87
2017-06-16T09:01:56.246Z,998.88
2017-06-16T09:02:56.273Z,998.97
2017-06-16T09:03:56.554Z,998.97
2017-06-16T09:04:56.333Z,998.95
2017-06-16T09:05:56.365Z,998.97
2017-06-16T09:06:56.390Z,998.93
2017-06-16T09:07:56.417Z,998.88
2017-06-16T09:08:56.443Z,998.89
2017-06-16T09:09:56.486Z,998.91
2017-06-16T09:10:56.505Z,998.94
2017-06-16T09:11:56.534Z,998.85
2017-06-16T09:12:56.565Z,998.88
2017-06-16T09:13:56.851Z,998.81
2017-06-16T09:14:56.619Z,998.89
2017-06-16T09:15:56.652Z,998.91
2017-06-16T09:16:56.681Z,998.88
2017-06-16T09:17:56.710Z,998.89
2017-06-16T09:18:56.995Z,998.88
2017-06-16T09:19:56.768Z,998.91
2017-06-16T09:20:56.826Z,998.92
2017-06-16T09:21:56.826Z,999
2017-06-16T09:22:56.849Z,999.02
2017-06-16T09:23:56.883Z,999.05
2017-06-16T09:24:56.916Z,999.03
2017-06-16T09:25:56.941Z,999.04
2017-06-16T09:26:56.972Z,998.99
2017-06-16T09:27:56.997Z,998.95
2017-06-16T09:28:57.032Z,998.99
2017-06-16T09:29:57.061Z,998.92
2017-06-16T09:30:57.089Z,999.03
2017-06-16T09:31:57.111Z,999.06
2017-06-16T09:32:57.145Z,999.03
2017-06-16T09:33:57.175Z,999.06
2017-06-16T09:34:57.205Z,999
2017-06-16T09:35:57.232Z,998.96
2017-06-16T09:36:57.257Z,998.96
2017-06-16T09:37:57.292Z,999.02
2017-06-16T09:38:57.324Z,999.02
2017-06-16T09:39:57.351Z,999.07
2017-06-16T09:40:57.380Z,999.02
2017-06-16T09:41:57.411Z,999.04
2017-06-16T09:42:57.439Z,999.05
2017-06-16T09:43:57.467Z,999.1
2017-06-16T09:44:57.492Z,999.09
2017-06-16T09:45:57.526Z,999.09
2017-06-16T09:46:57.558Z,999.06
2017-06-16T09:47:57.583Z,999.02
2017-06-16T09:48:57.618Z,998.99
2017-06-16T09:49:57.644Z,999.05
2017-06-16T09:50:57.672Z,999.06
2017-06-16T09:51:57.702Z,998.98
2017-06-16T09:52:57.731Z,998.98
2017-06-16T09:53:57.762Z,999.06
2017-06-16T09:54:57.788Z,998.99
2017-06-16T09:55:57.818Z,999.09
2017-06-16T09:56:57.845Z,999.03
2017-06-16T09:57:57.879Z,999.1
2017-06-16T09:58:57.907Z,999.02
2017-06-16T09:59:57.936Z,999.04
2017-06-16T10:00:57.966Z,999.02
2017-06-16T10:01:57.994Z,999.04
2017-06-16T10:02:58.023Z,999.13
2017-06-16T10:03:58.056Z,999.11
2017-06-16T10:04:58.081Z,999.16
2017-06-16T10:05:58.112Z,999.08
2017-06-16T10:06:58.142Z,999.13
2017-06-16T10:07:58.171Z,999.25
2017-06-16T10:08:58.200Z,999.16
2017-06-16T10:09:58.228Z,999.14
2017-06-16T10:10:58.258Z,999.17
2017-06-16T10:11:58.290Z,999.22
2017-06-16T10:12:58.317Z,999.16
2017-06-16T10:13:58.342Z,999.38
2017-06-16T10:14:58.376Z,999.23
2017-06-16T10:15:58.405Z,999.23
2017-06-16T10:16:58.433Z,999.19
2017-06-16T10:17:58.461Z,999.32
2017-06-16T10:18:58.486Z,999.39
2017-06-16T10:19:58.526Z,999.25
2017-06-16T10:20:58.552Z,999.33
2017-06-16T10:21:58.582Z,999.3
2017-06-16T10:22:58.611Z,999.26
2017-06-16T10:23:58.639Z,999.25
2017-06-16T10:24:58.664Z,999.28
2017-06-16T10:25:58.700Z,999.23
2017-06-16T10:26:58.727Z,999.25
2017-06-16T10:27:58.754Z,999.36
2017-06-16T10:28:58.788Z,999.36
2017-06-16T10:29:58.816Z,999.4
2017-06-16T10:30:58.843Z,999.52
2017-06-16T10:31:58.874Z,999.42
2017-06-16T10:32:58.902Z,999.45
2017-06-16T10:33:58.932Z,999.4
2017-06-16T10:34:58.964Z,999.4
2017-06-16T10:35:58.997Z,999.49
2017-06-16T10:36:59.022Z,999.42
2017-06-16T10:37:59.051Z,999.3
2017-06-16T10:38:59.079Z,999.34
2017-06-16T10:39:59.103Z,999.39
2017-06-16T10:40:59.137Z,999.46
2017-06-16T10:41:59.166Z,999.41
2017-06-16T10:42:59.195Z,999.29
2017-06-16T10:43:59.227Z,999.34
2017-06-16T10:44:59.257Z,999.32
2017-06-16T10:45:59.285Z,999.34
2017-06-16T10:46:59.313Z,999.32
2017-06-16T10:47:59.342Z,999.32
2017-06-16T10:48:59.372Z,999.38
2017-06-16T10:49:59.406Z,999.26
2017-06-16T10:50:59.427Z,999.4
2017-06-16T10:51:59.461Z,999.37
2017-06-16T10:52:59.489Z,999.35
2017-06-16T10:53:59.520Z,999.42
2017-06-16T10:54:59.552Z,999.41
2017-06-16T10:55:59.581Z,999.51
2017-06-16T10:56:59.610Z,999.37
2017-06-16T10:57:59.638Z,999.42
2017-06-16T10:58:59.666Z,999.41
2017-06-16T10:59:59.696Z,999.32
2017-06-16T11:00:59.726Z,999.6
2017-06-16T11:01:59.754Z,999.53
2017-06-16T11:02:59.787Z,999.48
2017-06-16T11:03:59.815Z,999.43
2017-06-16T11:04:59.844Z,999.4
2017-06-16T11:05:59.877Z,999.41
2017-06-16T11:06:59.905Z,999.49
2017-06-16T11:07:59.934Z,999.38
2017-06-16T11:08:59.963Z,999.38
2017-06-16T11:09:59.992Z,999.38
2017-06-16T11:11:00.024Z,999.4
2017-06-16T11:12:00.060Z,999.4
2017-06-16T11:13:00.100Z,999.46
2017-06-16T11:14:00.107Z,999.49
2017-06-16T11:15:00.392Z,999.38
2017-06-16T11:16:00.170Z,999.33
2017-06-16T11:17:00.201Z,999.38
2017-06-16T11:18:00.231Z,999.4
2017-06-16T11:19:00.264Z,999.49
2017-06-16T11:20:00.540Z,999.46
2017-06-16T11:21:00.328Z,999.49
2017-06-16T11:22:00.350Z,999.43
2017-06-16T11:23:00.379Z,999.41
2017-06-16T11:24:00.409Z,999.37
2017-06-16T11:25:00.437Z,999.48
2017-06-16T11:26:00.469Z,999.39
2017-06-16T11:27:00.493Z,999.39
2017-06-16T11:28:00.524Z,999.55
2017-06-16T11:29:00.556Z,999.49
2017-06-16T11:30:00.588Z,999.6
2017-06-16T11:31:00.616Z,999.54
2017-06-16T11:32:00.646Z,999.55
2017-06-16T11:33:00.680Z,999.49
2017-06-16T11:34:00.709Z,999.43
2017-06-16T11:35:00.735Z,999.45
2017-06-16T11:36:00.766Z,999.52
2017-06-16T11:37:00.798Z,999.55
2017-06-16T11:38:00.856Z,999.45
2017-06-16T11:39:00.856Z,999.4
2017-06-16T11:40:01.144Z,999.5
2017-06-16T11:41:00.918Z,999.54
2017-06-16T11:42:00.947Z,999.51
2017-06-16T11:43:00.980Z,999.74
2017-06-16T11:44:01.008Z,999.56
2017-06-16T11:45:01.037Z,999.61
2017-06-16T11:46:01.063Z,999.65
2017-06-16T11:47:01.095Z,999.57
2017-06-16T11:48:01.127Z,999.59
2017-06-16T11:49:01.162Z,999.6
2017-06-16T11:50:01.189Z,999.62
2017-06-16T11:51:01.218Z,999.64
2017-06-16T11:52:01.252Z,999.62
2017-06-16T11:53:01.282Z,999.65
2017-06-16T11:54:01.308Z,999.64
2017-06-16T11:55:01.341Z,999.69
2017-06-16T11:56:01.374Z,999.69
2017-06-16T11:57:01.402Z,999.69
2017-06-16T11:58:01.432Z,999.76
2017-06-16T11:59:01.465Z,999.72
2017-06-16T12:00:01.494Z,999.69
2017-06-16T12:01:01.522Z,999.71
2017-06-16T12:02:01.555Z,999.71
2017-06-16T12:03:01.584Z,999.64
2017-06-16T12:04:01.616Z,999.65
2017-06-16T12:05:01.645Z,999.67
2017-06-16T12:06:01.674Z,999.66
2017-06-16T12:07:01.702Z,999.7
2017-06-16T12:08:01.732Z,999.74
2017-06-16T12:09:01.768Z,999.68
2017-06-16T12:10:01.797Z,999.79
2017-06-16T12:11:01.827Z,999.65
2017-06-16T12:12:01.859Z,999.64
2017-06-16T12:13:01.886Z,999.75
2017-06-16T12:14:01.917Z,999.7
2017-06-16T12:15:01.950Z,999.68
2017-06-16T12:16:01.978Z,999.62
2017-06-16T12:17:02.011Z,999.64
2017-06-16T12:18:02.040Z,999.69
2017-06-16T12:19:02.069Z,999.67
2017-06-16T12:20:02.100Z,999.72
2017-06-16T12:21:02.126Z,999.87
2017-06-16T12:22:02.160Z,999.87
2017-06-16T12:23:02.188Z,999.8
2017-06-16T12:24:02.221Z,999.84
2017-06-16T12:25:02.251Z,999.81
2017-06-16T12:26:02.282Z,999.86
2017-06-16T12:27:02.316Z,999.75
2017-06-16T12:28:02.346Z,999.68
2017-06-16T12:29:02.378Z,999.65
2017-06-16T12:30:02.402Z,999.79
2017-06-16T12:31:02.438Z,999.85